createdAt,value
2022-09-17T00:01:08.169Z,2.63
2022-09-17T00:03:35.729Z,2.80
2022-09-17T00:06:07.987Z,3.30
2022-09-17T00:08:36.776Z,3.70
2022-09-17T00:11:21.184Z,2.67
2022-09-17T00:13:49.861Z,2.30
2022-09-17T00:16:26.596Z,2.13
2022-09-17T00:18:54.331Z,3.33
2022-09-17T00:21:21.574Z,3.20
2022-09-17T00:23:48.847Z,3.45
2022-09-17T00:26:15.973Z,3.13
2022-09-17T00:28:45.542Z,2.55
2022-09-17T00:31:12.641Z,4.45
2022-09-17T00:33:39.820Z,2.90
2022-09-17T00:36:07.197Z,2.50
2022-09-17T00:38:34.457Z,3.33
2022-09-17T00:41:02.348Z,3.15
2022-09-17T00:43:45.115Z,2.45
2022-09-17T00:46:26.681Z,3.22
2022-09-17T00:48:58.624Z,3.60
2022-09-17T00:51:36.179Z,5.43
2022-09-17T00:54:06.736Z,5.43
2022-09-17T00:56:38.950Z,5.65
2022-09-17T00:59:07.644Z,5.18
2022-09-17T01:01:34.548Z,4.65
2022-09-17T01:04:01.686Z,4.07
2022-09-17T01:06:34.578Z,4.22
2022-09-17T01:09:16.855Z,4.30
2022-09-17T01:11:43.781Z,3.35
2022-09-17T01:14:13.372Z,3.20
2022-09-17T01:16:46.506Z,3.53
2022-09-17T01:19:57.019Z,2.92
2022-09-17T01:22:34.234Z,3.60
2022-09-17T01:25:33.144Z,4.25
2022-09-17T01:28:00.060Z,4.60
2022-09-17T01:30:35.947Z,5.15
2022-09-17T01:33:30.574Z,4.05
2022-09-17T01:36:52.980Z,3.85
2022-09-17T01:39:43.754Z,4.00
2022-09-17T01:42:24.456Z,4.03
2022-09-17T01:45:05.410Z,5.95
2022-09-17T01:47:38.900Z,11.98
2022-09-17T01:50:12.977Z,12.57
2022-09-17T01:52:44.241Z,10.90
2022-09-17T01:55:19.856Z,13.65
2022-09-17T01:58:26.143Z,15.90
2022-09-17T02:00:57.547Z,18.13
2022-09-17T02:03:35.218Z,16.45
2022-09-17T02:06:11.035Z,12.68
2022-09-17T02:08:57.377Z,14.82
2022-09-17T02:11:24.893Z,9.50
2022-09-17T02:14:10.362Z,7.20
2022-09-17T02:16:44.986Z,4.97
2022-09-17T02:19:34.999Z,3.63
2022-09-17T02:22:12.463Z,3.53
2022-09-17T02:24:48.219Z,3.05
2022-09-17T02:27:39.037Z,4.05
2022-09-17T02:30:06.921Z,3.17
2022-09-17T02:32:33.928Z,3.05
2022-09-17T02:35:00.954Z,3.22
2022-09-17T02:37:27.977Z,3.55
2022-09-17T02:39:55.345Z,3.80
2022-09-17T02:42:47.347Z,6.75
2022-09-17T02:45:24.109Z,4.70
2022-09-17T02:48:02.718Z,5.00
2022-09-17T02:50:47.723Z,7.72
2022-09-17T02:53:26.914Z,7.88
2022-09-17T02:56:18.195Z,7.80
2022-09-17T02:58:53.787Z,9.65
2022-09-17T03:01:51.120Z,8.48
2022-09-17T03:04:21.197Z,8.85
2022-09-17T03:06:52.549Z,10.23
2022-09-17T03:09:19.704Z,11.30
2022-09-17T03:11:47.013Z,12.85
2022-09-17T03:14:13.960Z,11.05
2022-09-17T03:16:40.851Z,10.07
2022-09-17T03:19:08.202Z,9.82
2022-09-17T03:21:35.176Z,12.05
2022-09-17T03:24:02.272Z,13.85
2022-09-17T03:26:29.125Z,12.65
2022-09-17T03:28:56.319Z,11.20
2022-09-17T03:31:23.217Z,11.05
2022-09-17T03:33:50.346Z,11.10
2022-09-17T03:36:17.306Z,10.85
2022-09-17T03:38:44.178Z,10.52
2022-09-17T03:41:11.496Z,10.85
2022-09-17T03:43:39.923Z,12.77
2022-09-17T03:46:07.039Z,14.05
2022-09-17T03:48:37.305Z,14.23
2022-09-17T03:51:04.737Z,10.43
2022-09-17T03:53:32.617Z,9.07
2022-09-17T03:56:01.710Z,8.23
2022-09-17T03:58:30.136Z,8.07
2022-09-17T04:00:58.149Z,9.27
2022-09-17T04:03:26.743Z,23.80
2022-09-17T04:05:54.261Z,13.38
2022-09-17T04:08:21.682Z,13.85
2022-09-17T04:10:49.099Z,13.55
2022-09-17T04:13:17.168Z,10.88
2022-09-17T04:15:45.504Z,9.82
2022-09-17T04:18:13.254Z,9.65
2022-09-17T04:20:40.572Z,10.38
2022-09-17T04:23:07.624Z,11.77
2022-09-17T04:25:34.469Z,12.93
2022-09-17T04:28:01.507Z,13.25
2022-09-17T04:30:28.392Z,14.82
2022-09-17T04:32:55.263Z,13.93
2022-09-17T04:35:22.324Z,14.40
2022-09-17T04:37:53.608Z,13.60
2022-09-17T04:40:20.733Z,14.50
2022-09-17T04:42:47.651Z,13.18
2022-09-17T04:45:14.801Z,13.00
2022-09-17T04:47:41.665Z,11.80
2022-09-17T04:50:08.963Z,10.52
2022-09-17T04:52:35.826Z,11.55
2022-09-17T04:55:02.742Z,10.75
2022-09-17T04:57:29.606Z,11.13
2022-09-17T04:59:56.490Z,8.77
2022-09-17T05:02:23.571Z,4.82
2022-09-17T05:04:50.866Z,6.07
2022-09-17T05:07:17.760Z,5.45
2022-09-17T05:09:44.710Z,5.45
2022-09-17T05:12:11.578Z,7.57
2022-09-17T05:14:38.560Z,5.43
2022-09-17T05:17:05.518Z,6.38
2022-09-17T05:19:32.748Z,5.00
2022-09-17T05:21:59.603Z,7.20
2022-09-17T05:24:27.477Z,8.63
2022-09-17T05:26:54.443Z,10.00
2022-09-17T05:29:21.443Z,10.27
2022-09-17T05:31:48.382Z,10.00
2022-09-17T05:34:15.321Z,8.20
2022-09-17T05:36:42.217Z,9.93
2022-09-17T05:39:09.409Z,8.55
2022-09-17T05:41:36.268Z,7.28
2022-09-17T05:44:03.446Z,6.72
2022-09-17T05:46:30.402Z,6.35
2022-09-17T05:48:58.075Z,5.63
2022-09-17T05:51:25.376Z,6.25
2022-09-17T05:53:55.066Z,5.93
2022-09-17T05:56:22.310Z,5.18
2022-09-17T05:58:49.380Z,5.75
2022-09-17T06:01:16.478Z,5.88
2022-09-17T06:03:43.350Z,6.07
2022-09-17T06:06:10.975Z,5.63
2022-09-17T06:08:37.814Z,5.53
2022-09-17T06:11:06.032Z,6.15
2022-09-17T06:13:33.726Z,4.97
2022-09-17T06:16:01.894Z,5.78
2022-09-17T06:18:32.347Z,5.35
2022-09-17T06:21:01.666Z,5.95
2022-09-17T06:23:35.250Z,5.93
2022-09-17T06:26:03.362Z,5.38
2022-09-17T06:28:30.559Z,5.13
2022-09-17T06:31:04.757Z,6.35
2022-09-17T06:33:32.990Z,4.13
2022-09-17T06:36:01.753Z,5.53
2022-09-17T06:38:29.688Z,3.45
2022-09-17T06:40:56.765Z,4.80
2022-09-17T06:43:24.395Z,7.30
2022-09-17T06:45:59.452Z,5.65
2022-09-17T06:48:28.051Z,7.75
2022-09-17T06:50:55.119Z,7.50
2022-09-17T06:53:23.600Z,6.10
2022-09-17T06:55:50.905Z,7.15
2022-09-17T06:58:17.956Z,7.50
2022-09-17T07:00:45.111Z,6.57
2022-09-17T07:03:13.745Z,5.70
2022-09-17T07:05:43.908Z,5.32
2022-09-17T07:08:11.204Z,4.82
2022-09-17T07:10:38.099Z,4.95
2022-09-17T07:13:05.035Z,5.18
2022-09-17T07:15:32.670Z,5.30
2022-09-17T07:17:59.639Z,4.03
2022-09-17T07:20:26.498Z,3.80
2022-09-17T07:22:57.680Z,4.55
2022-09-17T07:25:26.730Z,4.18
2022-09-17T07:27:53.997Z,3.83
2022-09-17T07:30:21.326Z,4.15
2022-09-17T07:32:48.437Z,5.07
2022-09-17T07:35:15.572Z,6.05
2022-09-17T07:37:42.536Z,5.68
2022-09-17T07:40:09.603Z,4.00
2022-09-17T07:42:36.499Z,3.80
2022-09-17T07:45:03.561Z,6.20
2022-09-17T07:47:30.453Z,4.90
2022-09-17T07:49:57.863Z,4.38
2022-09-17T07:52:24.841Z,3.55
2022-09-17T07:54:51.737Z,3.58
2022-09-17T07:57:18.627Z,5.20
2022-09-17T07:59:45.495Z,5.20
2022-09-17T08:02:14.442Z,4.00
2022-09-17T08:04:44.183Z,4.18
2022-09-17T08:07:13.597Z,3.25
2022-09-17T08:09:40.522Z,2.70
2022-09-17T08:12:07.867Z,3.65
2022-09-17T08:14:34.726Z,4.13
2022-09-17T08:17:01.617Z,4.80
2022-09-17T08:19:32.951Z,3.70
2022-09-17T08:21:59.914Z,3.00
2022-09-17T08:24:27.744Z,3.45
2022-09-17T08:26:54.715Z,4.22
2022-09-17T08:29:21.564Z,2.88
2022-09-17T08:31:48.562Z,2.92
2022-09-17T08:34:15.615Z,3.60
2022-09-17T08:36:42.549Z,2.28
2022-09-17T08:39:11.230Z,3.65
2022-09-17T08:41:55.406Z,2.38
2022-09-17T08:44:39.931Z,3.28
2022-09-17T08:47:31.204Z,2.58
2022-09-17T08:50:00.730Z,2.30
2022-09-17T08:53:05.154Z,2.17
2022-09-17T08:55:41.296Z,2.47
2022-09-17T08:58:20.216Z,2.83
2022-09-17T09:01:05.786Z,4.65
2022-09-17T09:04:00.423Z,2.85
2022-09-17T09:09:21.274Z,2.80
2022-09-17T09:11:50.353Z,2.53
2022-09-17T09:14:26.495Z,1.77
2022-09-17T09:16:56.534Z,2.47
2022-09-17T09:19:30.437Z,2.38
2022-09-17T09:25:23.323Z,2.58
2022-09-17T09:28:36.782Z,2.20
2022-09-17T09:31:09.721Z,2.50
2022-09-17T09:33:41.613Z,2.30
2022-09-17T09:36:16.050Z,2.38
2022-09-17T09:38:58.999Z,2.92
2022-09-17T09:41:45.444Z,2.15
2022-09-17T09:44:15.605Z,2.65
2022-09-17T09:46:48.477Z,2.35
2022-09-17T09:50:04.499Z,1.88
2022-09-17T09:53:11.519Z,2.13
2022-09-17T09:56:15.849Z,2.30
2022-09-17T09:58:43.061Z,1.73
2022-09-17T10:01:20.671Z,2.00
2022-09-17T10:03:49.095Z,2.30
2022-09-17T10:06:17.058Z,2.13
2022-09-17T10:08:55.905Z,2.15
2022-09-17T10:11:33.154Z,1.95
2022-09-17T10:14:32.055Z,2.67
2022-09-17T10:17:22.103Z,2.55
2022-09-17T10:20:12.127Z,2.63
2022-09-17T10:22:44.781Z,2.28
2022-09-17T10:25:42.770Z,1.95
2022-09-17T10:28:50.538Z,2.78
2022-09-17T10:31:17.691Z,1.70
2022-09-17T10:33:59.383Z,2.00
2022-09-17T10:36:40.462Z,3.33
2022-09-17T10:39:26.798Z,2.28
2022-09-17T10:41:59.198Z,2.08
2022-09-17T10:44:28.882Z,3.03
2022-09-17T10:47:01.676Z,1.55
2022-09-17T10:49:48.708Z,2.30
2022-09-17T10:52:28.195Z,2.30
2022-09-17T10:55:21.082Z,1.98
2022-09-17T10:58:04.178Z,3.13
2022-09-17T11:01:12.856Z,2.60
2022-09-17T11:03:56.584Z,2.05
2022-09-17T11:06:23.502Z,2.40
2022-09-17T11:09:19.296Z,2.55
2022-09-17T11:11:49.184Z,3.55
2022-09-17T11:14:16.053Z,2.10
2022-09-17T11:16:53.644Z,2.47
2022-09-17T11:19:48.450Z,2.30
2022-09-17T11:22:30.457Z,3.13
2022-09-17T11:25:18.753Z,2.38
2022-09-17T11:28:10.104Z,2.50
2022-09-17T11:31:07.607Z,2.55
2022-09-17T11:33:47.193Z,2.25
2022-09-17T11:36:28.003Z,2.50
2022-09-17T11:38:59.811Z,2.67
2022-09-17T11:41:36.313Z,2.10
2022-09-17T11:44:25.843Z,2.47
2022-09-17T11:47:17.520Z,2.92
2022-09-17T11:49:55.831Z,2.42
2022-09-17T11:53:16.325Z,2.92
2022-09-17T11:55:51.387Z,3.42
2022-09-17T11:58:27.151Z,2.88
2022-09-17T12:01:06.099Z,2.55
2022-09-17T12:04:11.059Z,2.00
2022-09-17T12:06:49.358Z,2.88
2022-09-17T12:09:26.148Z,2.63
2022-09-17T12:12:02.887Z,2.90
2022-09-17T12:14:54.165Z,2.55
2022-09-17T12:17:28.558Z,2.53
2022-09-17T12:20:01.852Z,3.08
2022-09-17T12:22:35.976Z,2.70
2022-09-17T12:25:06.766Z,2.38
2022-09-17T12:27:39.303Z,2.85
2022-09-17T12:30:22.410Z,2.92
2022-09-17T12:33:19.289Z,2.63
2022-09-17T12:36:16.151Z,2.97
2022-09-17T12:39:02.622Z,3.13
2022-09-17T12:41:32.876Z,2.78
2022-09-17T12:44:02.517Z,2.40
2022-09-17T12:46:54.086Z,3.38
2022-09-17T12:49:42.537Z,3.03
2022-09-17T12:52:52.756Z,3.15
2022-09-17T12:55:36.398Z,2.85
2022-09-17T12:58:20.456Z,2.67
2022-09-17T13:01:04.113Z,2.58
2022-09-17T13:03:41.410Z,3.80
2022-09-17T13:06:26.653Z,3.17
2022-09-17T13:09:34.963Z,3.03
2022-09-17T13:12:18.106Z,3.03
2022-09-17T13:15:17.661Z,3.35
2022-09-17T13:18:27.123Z,2.40
2022-09-17T13:21:36.250Z,2.60
2022-09-17T13:24:18.150Z,2.42
2022-09-17T13:26:46.181Z,2.75
2022-09-17T13:29:33.502Z,1.88
2022-09-17T13:32:00.422Z,3.00
2022-09-17T13:34:30.430Z,1.80
2022-09-17T13:37:04.950Z,1.98
2022-09-17T13:39:43.835Z,2.47
2022-09-17T13:42:16.147Z,4.70
2022-09-17T13:44:49.585Z,8.60
2022-09-17T13:47:22.523Z,4.80
2022-09-17T13:49:57.645Z,3.47
2022-09-17T13:52:39.791Z,3.42
2022-09-17T13:55:08.958Z,4.15
2022-09-17T13:57:48.501Z,3.58
2022-09-17T14:00:49.657Z,3.55
2022-09-17T14:03:31.611Z,3.80
2022-09-17T14:06:19.527Z,2.15
2022-09-17T14:08:58.616Z,1.75
2022-09-17T14:11:32.432Z,2.35
2022-09-17T14:13:59.442Z,2.20
2022-09-17T14:16:35.891Z,1.13
2022-09-17T14:19:28.005Z,1.30
2022-09-17T14:21:59.686Z,1.50
2022-09-17T14:24:44.445Z,1.25
2022-09-17T14:27:39.963Z,1.40
2022-09-17T14:30:20.693Z,2.40
2022-09-17T14:33:02.737Z,1.15
2022-09-17T14:35:42.557Z,1.00
2022-09-17T14:38:20.202Z,1.40
2022-09-17T14:40:53.517Z,1.13
2022-09-17T14:43:25.404Z,1.25
2022-09-17T14:45:53.724Z,1.25
2022-09-17T14:48:47.020Z,0.90
2022-09-17T14:51:22.355Z,0.98
2022-09-17T14:54:06.179Z,1.42
2022-09-17T14:56:36.830Z,1.25
2022-09-17T14:59:03.784Z,1.00
2022-09-17T15:01:31.543Z,1.02
2022-09-17T15:04:13.453Z,1.17
2022-09-17T15:06:42.128Z,1.27
2022-09-17T15:09:16.939Z,1.20
2022-09-17T15:14:18.836Z,1.25
2022-09-17T15:16:51.789Z,1.42
2022-09-17T15:19:28.312Z,1.80
2022-09-17T15:21:57.634Z,1.48
2022-09-17T15:24:36.530Z,0.90
2022-09-17T15:27:12.533Z,1.15
2022-09-17T15:29:44.751Z,1.30
2022-09-17T15:32:15.037Z,1.23
2022-09-17T15:34:42.499Z,1.23
2022-09-17T15:37:19.488Z,1.17
2022-09-17T15:39:52.267Z,1.50
2022-09-17T15:42:28.022Z,2.40
2022-09-17T15:45:27.642Z,1.45
2022-09-17T15:47:56.770Z,1.15
2022-09-17T15:50:25.994Z,1.40
2022-09-17T15:53:11.084Z,1.90
2022-09-17T15:58:41.725Z,1.10
2022-09-17T16:01:14.903Z,1.30
2022-09-17T16:03:44.658Z,1.50
2022-09-17T16:06:25.471Z,1.55
2022-09-17T16:08:53.498Z,1.40
2022-09-17T16:11:23.181Z,1.13
2022-09-17T16:13:51.635Z,2.20
2022-09-17T16:16:21.341Z,1.10
2022-09-17T16:18:49.377Z,1.30
2022-09-17T16:21:18.614Z,1.17
2022-09-17T16:23:46.120Z,2.17
2022-09-17T16:26:18.334Z,2.47
2022-09-17T16:28:53.656Z,1.25
2022-09-17T16:31:21.335Z,2.00
2022-09-17T16:33:48.380Z,1.83
2022-09-17T16:36:18.907Z,1.55
2022-09-17T16:38:45.756Z,1.65
2022-09-17T16:41:12.837Z,1.58
2022-09-17T16:43:40.466Z,2.28
2022-09-17T16:46:10.904Z,3.22
2022-09-17T16:48:38.472Z,1.88
2022-09-17T16:51:09.598Z,2.28
2022-09-17T16:53:36.830Z,1.90
2022-09-17T16:56:11.268Z,1.95
2022-09-17T16:58:38.733Z,1.80
2022-09-17T17:01:09.378Z,2.83
2022-09-17T17:03:36.669Z,2.03
2022-09-17T17:06:04.216Z,2.85
2022-09-17T17:08:34.688Z,3.17
2022-09-17T17:11:01.669Z,2.50
2022-09-17T17:13:28.925Z,2.15
2022-09-17T17:15:55.955Z,2.15
2022-09-17T17:18:23.051Z,2.78
2022-09-17T17:20:50.175Z,2.83
2022-09-17T17:23:17.317Z,2.30
2022-09-17T17:25:44.221Z,2.60
2022-09-17T17:28:11.245Z,2.40
2022-09-17T17:30:38.628Z,3.13
2022-09-17T17:33:05.682Z,2.30
2022-09-17T17:35:32.768Z,3.05
2022-09-17T17:37:59.705Z,3.85
2022-09-17T17:40:26.886Z,3.30
2022-09-17T17:42:54.408Z,3.10
2022-09-17T17:45:21.398Z,2.67
2022-09-17T17:47:48.588Z,2.78
2022-09-17T17:50:16.113Z,3.40
2022-09-17T17:52:48.001Z,2.47
2022-09-17T17:55:16.521Z,2.25
2022-09-17T17:57:43.433Z,2.80
2022-09-17T18:00:14.590Z,2.90
2022-09-17T18:02:42.080Z,2.63
2022-09-17T18:05:18.228Z,3.70
2022-09-17T18:07:45.240Z,3.50
2022-09-17T18:10:13.256Z,3.30
2022-09-17T18:12:40.271Z,2.85
2022-09-17T18:15:10.832Z,2.85
2022-09-17T18:17:37.822Z,3.00
2022-09-17T18:20:05.507Z,3.10
2022-09-17T18:22:32.430Z,3.80
2022-09-17T18:24:59.369Z,4.10
2022-09-17T18:27:26.316Z,4.45
2022-09-17T18:29:53.309Z,4.15
2022-09-17T18:32:20.197Z,4.85
2022-09-17T18:34:47.093Z,5.32
2022-09-17T18:37:14.102Z,7.03
2022-09-17T18:42:27.942Z,5.75
2022-09-17T18:44:55.069Z,6.55
2022-09-17T18:47:21.989Z,7.68
2022-09-17T18:49:49.215Z,6.88
2022-09-17T18:52:16.217Z,5.45
2022-09-17T18:54:46.001Z,4.53
2022-09-17T18:57:13.973Z,4.78
2022-09-17T18:59:40.866Z,5.78
2022-09-17T19:02:12.048Z,5.32
2022-09-17T19:04:39.488Z,5.75
2022-09-17T19:07:06.853Z,5.63
2022-09-17T19:09:33.764Z,5.75
2022-09-17T19:12:00.696Z,5.43
2022-09-17T19:14:27.642Z,5.60
2022-09-17T19:16:55.358Z,3.88
2022-09-17T19:19:22.472Z,3.90
2022-09-17T19:21:50.755Z,4.88
2022-09-17T19:24:18.287Z,3.65
2022-09-17T19:26:50.664Z,4.53
2022-09-17T19:29:17.848Z,4.70
2022-09-17T19:31:44.946Z,5.18
2022-09-17T19:34:11.852Z,5.15
2022-09-17T19:36:38.717Z,6.40
2022-09-17T19:39:05.651Z,7.03
2022-09-17T19:41:33.523Z,7.13
2022-09-17T19:44:00.439Z,7.85
2022-09-17T19:46:27.494Z,6.45
2022-09-17T19:48:56.369Z,6.07
2022-09-17T19:51:25.964Z,5.53
2022-09-17T19:53:53.042Z,6.03
2022-09-17T19:56:25.669Z,4.93
2022-09-17T19:58:53.003Z,5.15
2022-09-17T20:01:20.253Z,5.40
2022-09-17T20:03:47.641Z,4.88
2022-09-17T20:06:17.315Z,5.50
2022-09-17T20:08:48.906Z,6.13
2022-09-17T20:11:17.363Z,4.80
2022-09-17T20:13:44.674Z,5.68
2022-09-17T20:16:22.324Z,5.20
2022-09-17T20:18:50.107Z,4.38
2022-09-17T20:21:23.136Z,5.70
2022-09-17T20:23:50.112Z,5.93
2022-09-17T20:26:17.782Z,5.88
2022-09-17T20:28:45.076Z,5.15
2022-09-17T20:31:14.800Z,6.38
2022-09-17T20:33:42.422Z,7.63
2022-09-17T20:36:15.444Z,7.35
2022-09-17T20:39:11.375Z,5.80
2022-09-17T20:41:31.743Z,6.38
2022-09-17T20:43:58.899Z,6.32
2022-09-17T20:46:29.347Z,5.40
2022-09-17T20:48:58.386Z,7.00
2022-09-17T20:51:30.420Z,5.97
2022-09-17T20:53:57.858Z,7.53
2022-09-17T20:56:27.563Z,7.88
2022-09-17T20:59:29.353Z,9.35
2022-09-17T21:01:56.230Z,9.80
2022-09-17T21:04:24.223Z,10.40
2022-09-17T21:06:53.207Z,8.05
2022-09-17T21:09:20.315Z,8.00
2022-09-17T21:11:48.904Z,8.65
2022-09-17T21:14:17.549Z,15.57
2022-09-17T21:16:45.271Z,19.02
2022-09-17T21:19:13.363Z,19.50
2022-09-17T21:21:40.470Z,20.38
2022-09-17T21:24:10.265Z,11.85
2022-09-17T21:26:37.412Z,12.10
2022-09-17T21:29:04.370Z,7.88
2022-09-17T21:31:33.902Z,8.23
2022-09-17T21:34:03.748Z,12.68
2022-09-17T21:36:33.165Z,9.10
2022-09-17T21:39:02.867Z,6.03
2022-09-17T21:41:30.404Z,7.07
2022-09-17T21:43:57.940Z,9.73
2022-09-17T21:46:32.289Z,9.48
2022-09-17T21:49:02.357Z,8.38
2022-09-17T21:51:32.286Z,10.13
2022-09-17T21:54:01.429Z,6.70
2022-09-17T21:56:29.886Z,8.90
2022-09-17T21:58:59.217Z,14.82
2022-09-17T22:01:40.685Z,9.75
2022-09-17T22:04:13.381Z,10.25
2022-09-17T22:06:41.702Z,9.00
2022-09-17T22:09:14.757Z,9.52
2022-09-17T22:11:46.420Z,10.40
2022-09-17T22:14:19.764Z,9.40
2022-09-17T22:16:52.191Z,10.25
2022-09-17T22:19:20.606Z,9.20
2022-09-17T22:21:51.429Z,7.22
2022-09-17T22:24:20.421Z,5.50
2022-09-17T22:26:55.765Z,5.68
2022-09-17T22:29:24.697Z,6.28
2022-09-17T22:31:51.674Z,5.63
2022-09-17T22:34:23.186Z,4.97
2022-09-17T22:36:50.295Z,5.95
2022-09-17T22:39:19.186Z,5.47
2022-09-17T22:41:46.332Z,6.50
2022-09-17T22:44:16.780Z,5.53
2022-09-17T22:46:46.445Z,6.28
2022-09-17T22:49:14.569Z,5.68
2022-09-17T22:51:42.470Z,5.72
2022-09-17T22:54:16.005Z,5.22
2022-09-17T22:56:43.636Z,4.93
2022-09-17T22:59:10.582Z,4.28
2022-09-17T23:01:38.959Z,4.80
2022-09-17T23:04:06.470Z,4.43
2022-09-17T23:06:36.180Z,3.80
2022-09-17T23:09:03.561Z,3.22
2022-09-17T23:11:33.971Z,3.10
2022-09-17T23:14:03.238Z,3.28
2022-09-17T23:16:38.823Z,3.08
2022-09-17T23:19:05.971Z,3.00
2022-09-17T23:21:33.016Z,2.80
2022-09-17T23:24:00.185Z,3.15
2022-09-17T23:26:27.671Z,3.85
2022-09-17T23:28:55.264Z,3.70
2022-09-17T23:31:24.711Z,3.20
2022-09-17T23:33:52.211Z,2.72
2022-09-17T23:36:22.570Z,1.63
2022-09-17T23:38:49.823Z,2.10
2022-09-17T23:41:22.032Z,1.65
2022-09-17T23:43:54.495Z,1.95
2022-09-17T23:46:23.122Z,1.10
2022-09-17T23:48:51.813Z,1.50
2022-09-17T23:51:18.785Z,1.42
2022-09-17T23:53:45.818Z,1.55
2022-09-17T23:56:16.282Z,1.55
2022-09-17T23:58:43.216Z,1.20
